sensor_id;sensor_type;location;lat;lon;timestamp;temperature;humidity
26224;DHT22;14820;48.682;8.890;2023-08-21T00:32:53;21.90;99.90
26224;DHT22;14820;48.682;8.890;2023-08-21T00:35:19;21.90;99.90
26224;DHT22;14820;48.682;8.890;2023-08-21T00:37:45;21.80;99.90
26224;DHT22;14820;48.682;8.890;2023-08-21T00:40:11;21.80;99.90
26224;DHT22;14820;48.682;8.890;2023-08-21T00:45:03;21.60;99.90
26224;DHT22;14820;48.682;8.890;2023-08-21T00:47:29;21.60;99.90
26224;DHT22;14820;48.682;8.890;2023-08-21T00:49:55;21.60;99.90
26224;DHT22;14820;48.682;8.890;2023-08-21T00:52:21;21.60;99.90
26224;DHT22;14820;48.682;8.890;2023-08-21T00:54:47;21.60;99.90
26224;DHT22;14820;48.682;8.890;2023-08-21T00:57:12;21.60;99.90
26224;DHT22;14820;48.682;8.890;2023-08-21T00:59:39;21.60;99.90
26224;DHT22;14820;48.682;8.890;2023-08-21T01:02:05;21.60;99.90
26224;DHT22;14820;48.682;8.890;2023-08-21T01:04:31;21.60;99.90
26224;DHT22;14820;48.682;8.890;2023-08-21T01:06:57;21.50;99.90
26224;DHT22;14820;48.682;8.890;2023-08-21T01:10:12;21.10;99.90
26224;DHT22;14820;48.682;8.890;2023-08-21T01:15:22;21.30;99.90
26224;DHT22;14820;48.682;8.890;2023-08-21T01:17:48;21.30;99.90
26224;DHT22;14820;48.682;8.890;2023-08-21T01:20:14;21.20;99.90
26224;DHT22;14820;48.682;8.890;2023-08-21T01:22:42;21.20;99.90
26224;DHT22;14820;48.682;8.890;2023-08-21T01:25:12;21.20;99.90
26224;DHT22;14820;48.682;8.890;2023-08-21T01:27:43;21.10;99.90
26224;DHT22;14820;48.682;8.890;2023-08-21T01:30:10;21.10;99.90
26224;DHT22;14820;48.682;8.890;2023-08-21T01:35:17;21.10;99.90
26224;DHT22;14820;48.682;8.890;2023-08-21T01:37:43;21.10;99.90
26224;DHT22;14820;48.682;8.890;2023-08-21T01:40:09;21.00;99.90
26224;DHT22;14820;48.682;8.890;2023-08-21T01:42:35;21.00;99.90
26224;DHT22;14820;48.682;8.890;2023-08-21T01:45:01;21.00;99.90
26224;DHT22;14820;48.682;8.890;2023-08-21T01:47:26;21.00;99.90
26224;DHT22;14820;48.682;8.890;2023-08-21T01:49:52;21.00;99.90
26224;DHT22;14820;48.682;8.890;2023-08-21T01:52:18;20.90;99.90
26224;DHT22;14820;48.682;8.890;2023-08-21T01:54:44;20.90;99.90
26224;DHT22;14820;48.682;8.890;2023-08-21T01:57:10;20.80;99.90
26224;DHT22;14820;48.682;8.890;2023-08-21T01:59:36;20.80;99.90
26224;DHT22;14820;48.682;8.890;2023-08-21T02:02:01;20.80;99.90
26224;DHT22;14820;48.682;8.890;2023-08-21T02:04:27;20.70;99.90
26224;DHT22;14820;48.682;8.890;2023-08-21T02:06:52;20.70;99.90
26224;DHT22;14820;48.682;8.890;2023-08-21T02:09:18;20.70;99.90
26224;DHT22;14820;48.682;8.890;2023-08-21T02:11:44;20.70;99.90
26224;DHT22;14820;48.682;8.890;2023-08-21T02:14:09;20.70;99.90
26224;DHT22;14820;48.682;8.890;2023-08-21T02:16:35;20.70;99.90
26224;DHT22;14820;48.682;8.890;2023-08-21T02:19:00;20.70;99.90
26224;DHT22;14820;48.682;8.890;2023-08-21T02:21:26;20.60;99.90
26224;DHT22;14820;48.682;8.890;2023-08-21T02:23:52;20.60;99.90
26224;DHT22;14820;48.682;8.890;2023-08-21T02:26:17;20.60;99.90
26224;DHT22;14820;48.682;8.890;2023-08-21T02:28:45;20.50;99.90
26224;DHT22;14820;48.682;8.890;2023-08-21T02:31:11;20.60;99.90
26224;DHT22;14820;48.682;8.890;2023-08-21T02:33:37;20.50;99.90
26224;DHT22;14820;48.682;8.890;2023-08-21T02:36:03;20.50;99.90
26224;DHT22;14820;48.682;8.890;2023-08-21T02:38:29;20.50;99.90
26224;DHT22;14820;48.682;8.890;2023-08-21T02:40:54;20.50;99.90
26224;DHT22;14820;48.682;8.890;2023-08-21T02:43:21;20.50;99.90
26224;DHT22;14820;48.682;8.890;2023-08-21T02:45:46;20.50;99.90
26224;DHT22;14820;48.682;8.890;2023-08-21T02:48:12;20.50;99.90
26224;DHT22;14820;48.682;8.890;2023-08-21T02:50:38;20.50;99.90
26224;DHT22;14820;48.682;8.890;2023-08-21T02:53:03;20.50;99.90
26224;DHT22;14820;48.682;8.890;2023-08-21T02:55:29;20.50;99.90
26224;DHT22;14820;48.682;8.890;2023-08-21T02:57:55;20.40;99.90
26224;DHT22;14820;48.682;8.890;2023-08-21T03:00:20;20.40;99.90
26224;DHT22;14820;48.682;8.890;2023-08-21T03:02:46;20.40;99.90
26224;DHT22;14820;48.682;8.890;2023-08-21T03:05:12;20.40;99.90
26224;DHT22;14820;48.682;8.890;2023-08-21T03:07:38;20.40;99.90
26224;DHT22;14820;48.682;8.890;2023-08-21T03:10:05;20.40;99.90
26224;DHT22;14820;48.682;8.890;2023-08-21T03:12:31;20.30;99.90
26224;DHT22;14820;48.682;8.890;2023-08-21T03:14:57;20.30;99.90
26224;DHT22;14820;48.682;8.890;2023-08-21T03:17:23;20.30;99.90
26224;DHT22;14820;48.682;8.890;2023-08-21T03:19:49;20.30;99.90
26224;DHT22;14820;48.682;8.890;2023-08-21T03:22:15;20.20;99.90
26224;DHT22;14820;48.682;8.890;2023-08-21T03:24:41;20.20;99.90
26224;DHT22;14820;48.682;8.890;2023-08-21T03:27:06;20.20;99.90
26224;DHT22;14820;48.682;8.890;2023-08-21T03:29:32;20.20;99.90
26224;DHT22;14820;48.682;8.890;2023-08-21T03:31:58;20.20;99.90
26224;DHT22;14820;48.682;8.890;2023-08-21T03:34:24;20.20;99.90
26224;DHT22;14820;48.682;8.890;2023-08-21T03:36:50;20.20;99.90
26224;DHT22;14820;48.682;8.890;2023-08-21T03:39:15;20.10;99.90
26224;DHT22;14820;48.682;8.890;2023-08-21T03:41:41;20.10;99.90
26224;DHT22;14820;48.682;8.890;2023-08-21T03:44:06;20.10;99.90
26224;DHT22;14820;48.682;8.890;2023-08-21T03:46:32;20.00;99.90
26224;DHT22;14820;48.682;8.890;2023-08-21T03:48:58;20.00;99.90
26224;DHT22;14820;48.682;8.890;2023-08-21T03:51:23;20.00;99.90
26224;DHT22;14820;48.682;8.890;2023-08-21T03:53:49;20.00;99.90
26224;DHT22;14820;48.682;8.890;2023-08-21T03:56:15;20.00;99.90
26224;DHT22;14820;48.682;8.890;2023-08-21T03:58:41;20.00;99.90
26224;DHT22;14820;48.682;8.890;2023-08-21T04:01:06;19.90;99.90
26224;DHT22;14820;48.682;8.890;2023-08-21T04:03:32;20.00;99.90
26224;DHT22;14820;48.682;8.890;2023-08-21T04:05:59;19.90;99.90
26224;DHT22;14820;48.682;8.890;2023-08-21T04:08:25;20.00;99.90
26224;DHT22;14820;48.682;8.890;2023-08-21T04:10:50;20.00;99.90
26224;DHT22;14820;48.682;8.890;2023-08-21T04:13:18;19.90;99.90
26224;DHT22;14820;48.682;8.890;2023-08-21T04:15:48;19.90;99.90
26224;DHT22;14820;48.682;8.890;2023-08-21T04:18:14;19.90;99.90
26224;DHT22;14820;48.682;8.890;2023-08-21T04:20:40;19.90;99.90
26224;DHT22;14820;48.682;8.890;2023-08-21T04:23:05;19.90;99.90
26224;DHT22;14820;48.682;8.890;2023-08-21T04:25:31;19.90;99.90
26224;DHT22;14820;48.682;8.890;2023-08-21T04:27:57;19.90;99.90
26224;DHT22;14820;48.682;8.890;2023-08-21T04:30:22;19.90;99.90
26224;DHT22;14820;48.682;8.890;2023-08-21T04:32:48;19.80;99.90
26224;DHT22;14820;48.682;8.890;2023-08-21T04:35:14;19.80;99.90
26224;DHT22;14820;48.682;8.890;2023-08-21T04:37:46;19.80;99.90
26224;DHT22;14820;48.682;8.890;2023-08-21T04:40:12;19.80;99.90
26224;DHT22;14820;48.682;8.890;2023-08-21T04:42:38;19.80;99.90
26224;DHT22;14820;48.682;8.890;2023-08-21T04:45:05;19.70;99.90
26224;DHT22;14820;48.682;8.890;2023-08-21T04:47:31;19.80;99.90
26224;DHT22;14820;48.682;8.890;2023-08-21T04:49:57;19.70;99.90
26224;DHT22;14820;48.682;8.890;2023-08-21T04:52:23;19.80;99.90
26224;DHT22;14820;48.682;8.890;2023-08-21T04:54:49;19.80;99.90
26224;DHT22;14820;48.682;8.890;2023-08-21T04:57:16;19.80;99.90
26224;DHT22;14820;48.682;8.890;2023-08-21T04:59:43;19.80;99.90
26224;DHT22;14820;48.682;8.890;2023-08-21T05:02:08;19.80;99.90
26224;DHT22;14820;48.682;8.890;2023-08-21T05:04:36;19.80;99.90
26224;DHT22;14820;48.682;8.890;2023-08-21T05:07:03;19.80;99.90
26224;DHT22;14820;48.682;8.890;2023-08-21T05:09:28;19.90;99.90
26224;DHT22;14820;48.682;8.890;2023-08-21T05:11:55;19.80;99.90
26224;DHT22;14820;48.682;8.890;2023-08-21T05:14:21;19.90;99.90
26224;DHT22;14820;48.682;8.890;2023-08-21T05:16:48;19.90;99.90
26224;DHT22;14820;48.682;8.890;2023-08-21T05:19:14;19.90;99.90
26224;DHT22;14820;48.682;8.890;2023-08-21T05:21:40;19.90;99.90
26224;DHT22;14820;48.682;8.890;2023-08-21T05:24:05;19.90;99.90
26224;DHT22;14820;48.682;8.890;2023-08-21T05:26:31;19.90;99.90
26224;DHT22;14820;48.682;8.890;2023-08-21T05:28:57;20.00;99.90
26224;DHT22;14820;48.682;8.890;2023-08-21T05:31:22;20.00;99.90
26224;DHT22;14820;48.682;8.890;2023-08-21T05:33:48;20.00;99.90
26224;DHT22;14820;48.682;8.890;2023-08-21T05:36:14;20.00;99.90
26224;DHT22;14820;48.682;8.890;2023-08-21T05:38:39;20.10;99.90
26224;DHT22;14820;48.682;8.890;2023-08-21T05:41:05;20.10;99.90
26224;DHT22;14820;48.682;8.890;2023-08-21T05:43:31;20.10;99.90
26224;DHT22;14820;48.682;8.890;2023-08-21T05:45:56;20.20;99.90
26224;DHT22;14820;48.682;8.890;2023-08-21T05:48:22;20.20;99.90
26224;DHT22;14820;48.682;8.890;2023-08-21T05:50:52;20.30;99.90
26224;DHT22;14820;48.682;8.890;2023-08-21T05:53:18;20.30;99.90
26224;DHT22;14820;48.682;8.890;2023-08-21T05:55:44;20.40;99.90
26224;DHT22;14820;48.682;8.890;2023-08-21T05:58:09;20.40;99.90
26224;DHT22;14820;48.682;8.890;2023-08-21T06:00:35;20.50;99.90
26224;DHT22;14820;48.682;8.890;2023-08-21T06:03:01;20.60;99.90
26224;DHT22;14820;48.682;8.890;2023-08-21T06:05:27;20.60;99.90
26224;DHT22;14820;48.682;8.890;2023-08-21T06:07:53;20.70;99.90
26224;DHT22;14820;48.682;8.890;2023-08-21T06:10:18;20.80;99.90
26224;DHT22;14820;48.682;8.890;2023-08-21T06:12:44;20.80;99.90
26224;DHT22;14820;48.682;8.890;2023-08-21T06:15:10;20.90;99.90
26224;DHT22;14820;48.682;8.890;2023-08-21T06:17:36;21.00;99.90
26224;DHT22;14820;48.682;8.890;2023-08-21T06:20:03;21.10;99.90
26224;DHT22;14820;48.682;8.890;2023-08-21T06:22:32;21.10;99.90
26224;DHT22;14820;48.682;8.890;2023-08-21T06:24:58;21.20;99.90
26224;DHT22;14820;48.682;8.890;2023-08-21T06:27:23;21.20;99.90
26224;DHT22;14820;48.682;8.890;2023-08-21T06:29:49;21.20;99.90
26224;DHT22;14820;48.682;8.890;2023-08-21T06:32:15;21.30;99.90
26224;DHT22;14820;48.682;8.890;2023-08-21T06:34:40;21.40;99.90
26224;DHT22;14820;48.682;8.890;2023-08-21T06:37:06;21.50;99.90
26224;DHT22;14820;48.682;8.890;2023-08-21T06:39:34;21.60;99.90
26224;DHT22;14820;48.682;8.890;2023-08-21T06:41:59;21.70;99.90
26224;DHT22;14820;48.682;8.890;2023-08-21T06:44:26;21.80;99.90
26224;DHT22;14820;48.682;8.890;2023-08-21T06:46:51;21.80;99.90
26224;DHT22;14820;48.682;8.890;2023-08-21T06:49:17;21.90;99.90
26224;DHT22;14820;48.682;8.890;2023-08-21T06:51:43;22.00;99.90
26224;DHT22;14820;48.682;8.890;2023-08-21T06:54:09;22.10;99.90
26224;DHT22;14820;48.682;8.890;2023-08-21T06:56:34;22.20;99.90
26224;DHT22;14820;48.682;8.890;2023-08-21T06:59:00;22.20;99.90
26224;DHT22;14820;48.682;8.890;2023-08-21T07:01:27;22.40;99.90
26224;DHT22;14820;48.682;8.890;2023-08-21T07:03:53;22.50;99.90
26224;DHT22;14820;48.682;8.890;2023-08-21T07:06:19;22.60;99.90
26224;DHT22;14820;48.682;8.890;2023-08-21T07:08:45;22.70;99.90
26224;DHT22;14820;48.682;8.890;2023-08-21T07:11:10;22.80;99.90
26224;DHT22;14820;48.682;8.890;2023-08-21T07:13:37;22.90;99.90
26224;DHT22;14820;48.682;8.890;2023-08-21T07:16:03;23.00;99.90
26224;DHT22;14820;48.682;8.890;2023-08-21T07:18:34;23.10;99.90
26224;DHT22;14820;48.682;8.890;2023-08-21T07:21:01;23.10;99.90
26224;DHT22;14820;48.682;8.890;2023-08-21T07:23:28;23.20;99.90
26224;DHT22;14820;48.682;8.890;2023-08-21T07:25:54;23.30;99.90
26224;DHT22;14820;48.682;8.890;2023-08-21T07:28:20;23.40;99.90
26224;DHT22;14820;48.682;8.890;2023-08-21T07:30:46;23.50;99.90
26224;DHT22;14820;48.682;8.890;2023-08-21T07:33:11;23.60;99.90
26224;DHT22;14820;48.682;8.890;2023-08-21T07:35:37;23.70;99.90
26224;DHT22;14820;48.682;8.890;2023-08-21T07:38:03;23.90;99.90
26224;DHT22;14820;48.682;8.890;2023-08-21T07:40:29;24.00;99.90
26224;DHT22;14820;48.682;8.890;2023-08-21T07:42:55;24.10;99.90
26224;DHT22;14820;48.682;8.890;2023-08-21T07:45:20;24.20;99.90
26224;DHT22;14820;48.682;8.890;2023-08-21T07:47:46;24.20;99.90
26224;DHT22;14820;48.682;8.890;2023-08-21T07:50:12;24.40;99.90
26224;DHT22;14820;48.682;8.890;2023-08-21T07:52:39;24.40;99.90
26224;DHT22;14820;48.682;8.890;2023-08-21T07:55:05;24.50;99.90
26224;DHT22;14820;48.682;8.890;2023-08-21T07:59:57;24.70;99.90
26224;DHT22;14820;48.682;8.890;2023-08-21T08:02:23;24.80;99.90
26224;DHT22;14820;48.682;8.890;2023-08-21T08:04:49;25.00;99.90
26224;DHT22;14820;48.682;8.890;2023-08-21T08:07:14;25.00;99.90
26224;DHT22;14820;48.682;8.890;2023-08-21T08:09:42;25.40;99.90
26224;DHT22;14820;48.682;8.890;2023-08-21T08:14:37;25.50;99.90
26224;DHT22;14820;48.682;8.890;2023-08-21T08:17:03;25.40;99.90
26224;DHT22;14820;48.682;8.890;2023-08-21T08:19:28;25.60;99.90
26224;DHT22;14820;48.682;8.890;2023-08-21T08:21:54;25.70;99.90
26224;DHT22;14820;48.682;8.890;2023-08-21T08:24:20;25.80;99.90
26224;DHT22;14820;48.682;8.890;2023-08-21T08:29:14;25.90;99.90
26224;DHT22;14820;48.682;8.890;2023-08-21T08:31:39;25.90;99.90
26224;DHT22;14820;48.682;8.890;2023-08-21T08:34:05;26.00;99.90
26224;DHT22;14820;48.682;8.890;2023-08-21T08:36:31;26.10;99.90
26224;DHT22;14820;48.682;8.890;2023-08-21T08:38:56;26.10;99.90
26224;DHT22;14820;48.682;8.890;2023-08-21T08:44:25;26.40;99.90
26224;DHT22;14820;48.682;8.890;2023-08-21T08:46:54;26.50;99.90
26224;DHT22;14820;48.682;8.890;2023-08-21T08:49:22;26.60;99.90
26224;DHT22;14820;48.682;8.890;2023-08-21T08:51:49;26.60;99.90
26224;DHT22;14820;48.682;8.890;2023-08-21T08:54:16;26.70;99.90
26224;DHT22;14820;48.682;8.890;2023-08-21T08:56:42;26.80;99.90
26224;DHT22;14820;48.682;8.890;2023-08-21T08:59:08;26.80;99.90
26224;DHT22;14820;48.682;8.890;2023-08-21T09:01:34;27.00;99.90
26224;DHT22;14820;48.682;8.890;2023-08-21T09:04:01;27.10;99.90
26224;DHT22;14820;48.682;8.890;2023-08-21T09:06:27;27.10;99.90
26224;DHT22;14820;48.682;8.890;2023-08-21T09:08:54;27.20;99.90
26224;DHT22;14820;48.682;8.890;2023-08-21T09:11:21;27.20;99.90
26224;DHT22;14820;48.682;8.890;2023-08-21T09:13:49;27.30;99.90
26224;DHT22;14820;48.682;8.890;2023-08-21T09:16:19;27.30;99.90
26224;DHT22;14820;48.682;8.890;2023-08-21T09:18:49;27.40;99.90
26224;DHT22;14820;48.682;8.890;2023-08-21T09:21:16;27.40;99.90
26224;DHT22;14820;48.682;8.890;2023-08-21T09:23:42;27.40;99.90
26224;DHT22;14820;48.682;8.890;2023-08-21T09:26:08;27.40;99.90
26224;DHT22;14820;48.682;8.890;2023-08-21T09:28:34;27.30;99.90
26224;DHT22;14820;48.682;8.890;2023-08-21T09:31:00;27.40;99.90
26224;DHT22;14820;48.682;8.890;2023-08-21T09:33:28;27.40;99.90
26224;DHT22;14820;48.682;8.890;2023-08-21T09:35:54;27.50;99.90
26224;DHT22;14820;48.682;8.890;2023-08-21T09:38:20;27.50;99.90
26224;DHT22;14820;48.682;8.890;2023-08-21T09:40:51;27.50;99.90
26224;DHT22;14820;48.682;8.890;2023-08-21T09:43:18;27.60;99.90
26224;DHT22;14820;48.682;8.890;2023-08-21T09:45:48;27.60;99.90
26224;DHT22;14820;48.682;8.890;2023-08-21T09:48:14;27.80;99.90
26224;DHT22;14820;48.682;8.890;2023-08-21T09:50:40;27.80;99.90
26224;DHT22;14820;48.682;8.890;2023-08-21T09:53:09;27.90;99.90
26224;DHT22;14820;48.682;8.890;2023-08-21T09:55:35;28.10;99.90
26224;DHT22;14820;48.682;8.890;2023-08-21T09:58:02;28.20;99.90
26224;DHT22;14820;48.682;8.890;2023-08-21T10:00:29;28.20;99.90
26224;DHT22;14820;48.682;8.890;2023-08-21T10:03:00;28.30;99.90
26224;DHT22;14820;48.682;8.890;2023-08-21T10:05:27;28.20;99.90
26224;DHT22;14820;48.682;8.890;2023-08-21T10:07:55;28.30;99.90
26224;DHT22;14820;48.682;8.890;2023-08-21T10:10:21;28.40;99.90
26224;DHT22;14820;48.682;8.890;2023-08-21T10:12:48;28.40;99.90
26224;DHT22;14820;48.682;8.890;2023-08-21T10:15:14;28.50;99.90
26224;DHT22;14820;48.682;8.890;2023-08-21T10:17:42;28.60;99.90
26224;DHT22;14820;48.682;8.890;2023-08-21T10:20:09;28.60;99.90
26224;DHT22;14820;48.682;8.890;2023-08-21T10:22:56;28.70;99.90
26224;DHT22;14820;48.682;8.890;2023-08-21T10:25:26;28.70;99.90
26224;DHT22;14820;48.682;8.890;2023-08-21T10:27:57;28.90;99.90
26224;DHT22;14820;48.682;8.890;2023-08-21T10:30:24;28.90;99.90
26224;DHT22;14820;48.682;8.890;2023-08-21T10:32:55;28.90;99.90
26224;DHT22;14820;48.682;8.890;2023-08-21T10:35:23;28.80;99.90
26224;DHT22;14820;48.682;8.890;2023-08-21T10:38:14;28.70;99.90
26224;DHT22;14820;48.682;8.890;2023-08-21T10:41:06;28.60;99.90
26224;DHT22;14820;48.682;8.890;2023-08-21T10:46:05;28.70;99.90
26224;DHT22;14820;48.682;8.890;2023-08-21T10:48:31;28.80;99.90
26224;DHT22;14820;48.682;8.890;2023-08-21T10:51:00;28.70;99.90
26224;DHT22;14820;48.682;8.890;2023-08-21T10:53:26;28.70;99.90
26224;DHT22;14820;48.682;8.890;2023-08-21T10:55:53;28.70;99.90
26224;DHT22;14820;48.682;8.890;2023-08-21T10:58:20;28.80;99.90
26224;DHT22;14820;48.682;8.890;2023-08-21T11:00:45;28.70;99.90
26224;DHT22;14820;48.682;8.890;2023-08-21T11:03:11;28.70;99.90
26224;DHT22;14820;48.682;8.890;2023-08-21T11:05:37;28.70;99.90
26224;DHT22;14820;48.682;8.890;2023-08-21T11:08:03;28.80;99.90
26224;DHT22;14820;48.682;8.890;2023-08-21T11:10:30;28.90;99.90
26224;DHT22;14820;48.682;8.890;2023-08-21T11:12:57;29.00;99.90
26224;DHT22;14820;48.682;8.890;2023-08-21T11:15:28;29.10;99.90
26224;DHT22;14820;48.682;8.890;2023-08-21T11:17:55;29.10;99.90
26224;DHT22;14820;48.682;8.890;2023-08-21T11:20:22;29.20;99.90
26224;DHT22;14820;48.682;8.890;2023-08-21T11:22:48;29.20;99.90
26224;DHT22;14820;48.682;8.890;2023-08-21T11:25:15;29.30;99.90
26224;DHT22;14820;48.682;8.890;2023-08-21T11:27:43;29.40;99.90
26224;DHT22;14820;48.682;8.890;2023-08-21T11:30:11;29.30;99.90
26224;DHT22;14820;48.682;8.890;2023-08-21T11:32:37;29.20;99.90
26224;DHT22;14820;48.682;8.890;2023-08-21T11:35:05;29.10;99.90
26224;DHT22;14820;48.682;8.890;2023-08-21T11:37:30;29.20;99.90
26224;DHT22;14820;48.682;8.890;2023-08-21T11:39:58;29.30;99.90
26224;DHT22;14820;48.682;8.890;2023-08-21T11:42:31;29.20;99.90
26224;DHT22;14820;48.682;8.890;2023-08-21T11:44:59;29.20;99.90
26224;DHT22;14820;48.682;8.890;2023-08-21T11:47:31;29.10;99.90
26224;DHT22;14820;48.682;8.890;2023-08-21T11:50:05;29.10;99.90
26224;DHT22;14820;48.682;8.890;2023-08-21T11:52:31;29.00;99.90
26224;DHT22;14820;48.682;8.890;2023-08-21T11:54:57;29.00;99.90
26224;DHT22;14820;48.682;8.890;2023-08-21T11:57:23;29.00;99.90
26224;DHT22;14820;48.682;8.890;2023-08-21T11:59:50;29.00;99.90
26224;DHT22;14820;48.682;8.890;2023-08-21T12:02:19;29.10;99.90
26224;DHT22;14820;48.682;8.890;2023-08-21T12:04:54;29.20;99.90
26224;DHT22;14820;48.682;8.890;2023-08-21T12:07:20;29.20;99.90
26224;DHT22;14820;48.682;8.890;2023-08-21T12:09:47;29.20;99.90
26224;DHT22;14820;48.682;8.890;2023-08-21T12:12:14;29.30;99.90
26224;DHT22;14820;48.682;8.890;2023-08-21T12:14:40;29.30;99.90
26224;DHT22;14820;48.682;8.890;2023-08-21T12:17:06;29.40;99.90
26224;DHT22;14820;48.682;8.890;2023-08-21T12:19:32;29.50;99.90
26224;DHT22;14820;48.682;8.890;2023-08-21T12:21:58;29.40;99.90
26224;DHT22;14820;48.682;8.890;2023-08-21T12:24:24;29.40;99.90
26224;DHT22;14820;48.682;8.890;2023-08-21T12:26:50;29.40;99.90
26224;DHT22;14820;48.682;8.890;2023-08-21T12:29:18;29.40;99.90
26224;DHT22;14820;48.682;8.890;2023-08-21T12:31:44;29.30;99.90
26224;DHT22;14820;48.682;8.890;2023-08-21T12:34:09;29.40;99.90
26224;DHT22;14820;48.682;8.890;2023-08-21T12:36:36;29.50;99.90
26224;DHT22;14820;48.682;8.890;2023-08-21T12:39:05;29.60;99.90
26224;DHT22;14820;48.682;8.890;2023-08-21T12:41:31;29.70;99.90
26224;DHT22;14820;48.682;8.890;2023-08-21T12:43:59;29.80;99.90
26224;DHT22;14820;48.682;8.890;2023-08-21T12:46:25;30.00;99.90
26224;DHT22;14820;48.682;8.890;2023-08-21T12:48:53;30.00;99.90
26224;DHT22;14820;48.682;8.890;2023-08-21T12:51:19;30.10;99.90
26224;DHT22;14820;48.682;8.890;2023-08-21T12:53:45;30.10;99.90
26224;DHT22;14820;48.682;8.890;2023-08-21T12:56:10;30.20;99.90
26224;DHT22;14820;48.682;8.890;2023-08-21T12:58:36;30.20;99.90
26224;DHT22;14820;48.682;8.890;2023-08-21T13:01:02;30.30;99.90
26224;DHT22;14820;48.682;8.890;2023-08-21T13:03:29;30.40;99.90
26224;DHT22;14820;48.682;8.890;2023-08-21T13:05:55;30.40;99.90
26224;DHT22;14820;48.682;8.890;2023-08-21T13:08:21;30.40;99.90
26224;DHT22;14820;48.682;8.890;2023-08-21T13:10:47;30.40;99.90
26224;DHT22;14820;48.682;8.890;2023-08-21T13:13:12;30.40;99.90
26224;DHT22;14820;48.682;8.890;2023-08-21T13:15:38;30.40;99.90
26224;DHT22;14820;48.682;8.890;2023-08-21T13:18:04;30.40;99.90
26224;DHT22;14820;48.682;8.890;2023-08-21T13:20:30;30.40;99.90
26224;DHT22;14820;48.682;8.890;2023-08-21T13:22:56;30.30;99.90
26224;DHT22;14820;48.682;8.890;2023-08-21T13:25:23;30.40;99.90
26224;DHT22;14820;48.682;8.890;2023-08-21T13:27:52;30.40;99.90
26224;DHT22;14820;48.682;8.890;2023-08-21T13:30:18;30.40;99.90
26224;DHT22;14820;48.682;8.890;2023-08-21T13:32:44;30.40;99.90
26224;DHT22;14820;48.682;8.890;2023-08-21T13:35:10;30.40;99.90
26224;DHT22;14820;48.682;8.890;2023-08-21T13:37:36;30.30;99.90
26224;DHT22;14820;48.682;8.890;2023-08-21T13:40:03;30.30;99.90
26224;DHT22;14820;48.682;8.890;2023-08-21T13:42:37;30.20;99.90
26224;DHT22;14820;48.682;8.890;2023-08-21T13:45:07;30.20;99.90
26224;DHT22;14820;48.682;8.890;2023-08-21T13:47:33;30.20;99.90
26224;DHT22;14820;48.682;8.890;2023-08-21T13:49:59;30.10;99.90
26224;DHT22;14820;48.682;8.890;2023-08-21T13:52:25;30.00;99.90
26224;DHT22;14820;48.682;8.890;2023-08-21T13:54:50;30.00;99.90
26224;DHT22;14820;48.682;8.890;2023-08-21T13:57:16;30.00;99.90
26224;DHT22;14820;48.682;8.890;2023-08-21T13:59:41;30.10;99.90
26224;DHT22;14820;48.682;8.890;2023-08-21T14:02:07;30.20;99.90
26224;DHT22;14820;48.682;8.890;2023-08-21T14:04:33;30.30;99.90
26224;DHT22;14820;48.682;8.890;2023-08-21T14:06:58;30.30;99.90
26224;DHT22;14820;48.682;8.890;2023-08-21T14:09:24;30.40;99.90
26224;DHT22;14820;48.682;8.890;2023-08-21T14:11:50;30.40;99.90
26224;DHT22;14820;48.682;8.890;2023-08-21T14:14:15;30.30;99.90
26224;DHT22;14820;48.682;8.890;2023-08-21T14:16:41;30.40;99.90
26224;DHT22;14820;48.682;8.890;2023-08-21T14:19:06;30.50;99.90
26224;DHT22;14820;48.682;8.890;2023-08-21T14:21:32;30.40;99.90
26224;DHT22;14820;48.682;8.890;2023-08-21T14:23:58;30.40;99.90
26224;DHT22;14820;48.682;8.890;2023-08-21T14:26:23;30.40;99.90
26224;DHT22;14820;48.682;8.890;2023-08-21T14:28:49;30.50;99.90
26224;DHT22;14820;48.682;8.890;2023-08-21T14:31:17;30.60;99.90
26224;DHT22;14820;48.682;8.890;2023-08-21T14:33:43;30.50;99.90
26224;DHT22;14820;48.682;8.890;2023-08-21T14:36:08;30.50;99.90
26224;DHT22;14820;48.682;8.890;2023-08-21T14:38:34;30.60;99.90
26224;DHT22;14820;48.682;8.890;2023-08-21T14:41:00;30.50;99.90
26224;DHT22;14820;48.682;8.890;2023-08-21T14:43:26;30.50;99.90
26224;DHT22;14820;48.682;8.890;2023-08-21T14:45:53;30.50;99.90
26224;DHT22;14820;48.682;8.890;2023-08-21T14:48:19;30.50;99.90
26224;DHT22;14820;48.682;8.890;2023-08-21T14:50:44;30.50;99.90
26224;DHT22;14820;48.682;8.890;2023-08-21T14:53:10;30.50;99.90
26224;DHT22;14820;48.682;8.890;2023-08-21T14:55:36;30.40;99.90
26224;DHT22;14820;48.682;8.890;2023-08-21T14:58:02;30.50;99.90
26224;DHT22;14820;48.682;8.890;2023-08-21T15:00:32;30.50;99.90
26224;DHT22;14820;48.682;8.890;2023-08-21T15:02:58;30.50;99.90
26224;DHT22;14820;48.682;8.890;2023-08-21T15:05:27;30.50;99.90
26224;DHT22;14820;48.682;8.890;2023-08-21T15:07:53;30.40;99.90
26224;DHT22;14820;48.682;8.890;2023-08-21T15:10:20;30.50;99.90
26224;DHT22;14820;48.682;8.890;2023-08-21T15:12:46;30.40;99.90
26224;DHT22;14820;48.682;8.890;2023-08-21T15:15:12;30.40;99.90
26224;DHT22;14820;48.682;8.890;2023-08-21T15:17:37;30.40;99.90
26224;DHT22;14820;48.682;8.890;2023-08-21T15:20:04;30.40;99.90
26224;DHT22;14820;48.682;8.890;2023-08-21T15:22:33;30.40;99.90
26224;DHT22;14820;48.682;8.890;2023-08-21T15:24:59;30.30;99.90
26224;DHT22;14820;48.682;8.890;2023-08-21T15:27:24;30.20;99.90
26224;DHT22;14820;48.682;8.890;2023-08-21T15:29:50;30.10;99.90
26224;DHT22;14820;48.682;8.890;2023-08-21T15:32:16;30.10;99.90
26224;DHT22;14820;48.682;8.890;2023-08-21T15:34:41;30.10;99.90
26224;DHT22;14820;48.682;8.890;2023-08-21T15:37:07;30.10;99.90
26224;DHT22;14820;48.682;8.890;2023-08-21T15:39:34;30.10;99.90
26224;DHT22;14820;48.682;8.890;2023-08-21T15:41:59;30.10;99.90
26224;DHT22;14820;48.682;8.890;2023-08-21T15:44:25;30.10;99.90
26224;DHT22;14820;48.682;8.890;2023-08-21T15:46:51;30.00;99.90
26224;DHT22;14820;48.682;8.890;2023-08-21T15:49:16;30.00;99.90
26224;DHT22;14820;48.682;8.890;2023-08-21T15:51:45;29.90;99.90
26224;DHT22;14820;48.682;8.890;2023-08-21T15:54:12;29.90;99.90
26224;DHT22;14820;48.682;8.890;2023-08-21T15:56:38;30.00;99.90
26224;DHT22;14820;48.682;8.890;2023-08-21T15:59:03;30.00;99.90
26224;DHT22;14820;48.682;8.890;2023-08-21T16:01:29;30.00;99.90
26224;DHT22;14820;48.682;8.890;2023-08-21T16:03:54;30.10;99.90
26224;DHT22;14820;48.682;8.890;2023-08-21T16:06:20;30.00;99.90
26224;DHT22;14820;48.682;8.890;2023-08-21T16:08:46;30.10;99.90
26224;DHT22;14820;48.682;8.890;2023-08-21T16:11:12;30.10;99.90
26224;DHT22;14820;48.682;8.890;2023-08-21T16:13:37;30.00;99.90
26224;DHT22;14820;48.682;8.890;2023-08-21T16:16:03;30.00;99.90
26224;DHT22;14820;48.682;8.890;2023-08-21T16:18:29;30.10;99.90